Time;durP1;ratioP1;P1;durP2;ratioP2;P2;SDS_P1;SDS_P2;PMS_P1;PMS_P2;Temp;Humidity;BMP_temperature;BMP_pressure;BME280_temperature;BME280_humidity;BME280_pressure;Samples;Min_cycle;Max_cycle;Signal;HPM_P1;HPM_P2
2021/08/14 00:01:12;;;;;;;2.42;1.70;;;;;;;34.50;27.50;98663.44;5066431;28;20388;-83
2021/08/14 00:03:38;;;;;;;2.38;1.73;;;;;;;34.57;27.51;98666.72;5061509;28;20549;-83
2021/08/14 00:06:04;;;;;;;2.25;1.52;;;;;;;34.57;27.19;98663.88;5069941;28;20044;-83
2021/08/14 00:08:30;;;;;;;2.50;1.52;;;;;;;34.54;27.45;98659.13;5062225;28;20033;-83
2021/08/14 00:10:56;;;;;;;1.77;1.52;;;;;;;34.41;27.27;98666.41;5068362;28;20096;-83
2021/08/14 00:13:22;;;;;;;1.95;1.50;;;;;;;34.22;28.18;98677.19;5062677;28;20496;-83
2021/08/14 00:15:48;;;;;;;2.67;1.50;;;;;;;34.20;27.81;98670.41;5056223;28;20095;-83
2021/08/14 00:18:14;;;;;;;1.75;1.65;;;;;;;34.23;27.60;98673.09;5059088;28;20052;-83
2021/08/14 00:20:40;;;;;;;2.25;1.77;;;;;;;34.30;27.62;98666.19;5057013;28;20032;-83
2021/08/14 00:23:06;;;;;;;2.25;1.83;;;;;;;34.32;27.64;98666.50;5065323;28;20537;-83
2021/08/14 00:25:32;;;;;;;2.95;2.00;;;;;;;34.30;27.90;98669.84;5061952;28;20035;-82
2021/08/14 00:27:58;;;;;;;1.90;1.50;;;;;;;34.48;27.26;98658.25;5064664;28;20392;-83
2021/08/14 00:30:24;;;;;;;1.50;1.40;;;;;;;34.55;26.82;98657.88;5062789;28;20028;-83
2021/08/14 00:32:51;;;;;;;1.77;1.48;;;;;;;34.50;27.35;98654.88;5060068;28;20392;-83
2021/08/14 00:35:18;;;;;;;2.25;1.65;;;;;;;34.57;26.99;98651.66;5055864;28;20029;-82
2021/08/14 00:37:44;;;;;;;2.10;1.45;;;;;;;34.49;27.18;98651.28;5063015;28;20489;-83
2021/08/14 00:40:11;;;;;;;2.53;1.40;;;;;;;34.47;26.74;98653.81;5062968;28;20396;-83
2021/08/14 00:42:37;;;;;;;3.40;1.60;;;;;;;34.64;26.48;98651.28;5056266;28;20064;-83
2021/08/14 00:45:04;;;;;;;2.22;1.88;;;;;;;34.69;26.93;98645.66;5057933;28;20041;-82
2021/08/14 00:47:30;;;;;;;2.38;1.90;;;;;;;34.49;27.10;98642.72;5064440;28;20036;-83
2021/08/14 00:49:57;;;;;;;1.90;1.48;;;;;;;34.42;27.25;98640.25;5055927;28;20035;-82
2021/08/14 00:52:24;;;;;;;2.10;1.55;;;;;;;34.44;27.25;98640.53;5058989;28;20063;-83
2021/08/14 00:54:50;;;;;;;3.22;1.75;;;;;;;34.31;27.43;98633.56;5056074;28;20045;-83
2021/08/14 00:57:17;;;;;;;2.65;1.77;;;;;;;34.28;27.85;98635.34;5057101;28;20021;-82
2021/08/14 00:59:45;;;;;;;2.03;1.60;;;;;;;34.20;27.59;98630.50;5054477;28;20083;-82
2021/08/14 01:02:12;;;;;;;1.63;1.52;;;;;;;33.97;28.13;98634.97;5060562;28;20033;-82
2021/08/14 01:04:38;;;;;;;2.78;2.13;;;;;;;33.77;28.41;98629.91;5054997;28;20037;-82
2021/08/14 01:07:04;;;;;;;3.67;1.65;;;;;;;33.92;27.66;98635.66;5056321;28;20107;-82
2021/08/14 01:09:31;;;;;;;2.08;1.88;;;;;;;33.98;28.37;98625.16;5059356;28;20096;-82
2021/08/14 01:12:03;;;;;;;2.15;1.95;;;;;;;33.71;28.76;98631.09;5055521;28;20079;-82
2021/08/14 01:14:31;;;;;;;2.05;1.85;;;;;;;33.59;28.43;98623.56;5062789;28;20041;-82
2021/08/14 01:16:58;;;;;;;2.97;2.22;;;;;;;33.54;28.66;98619.34;5063029;28;20025;-83
2021/08/14 01:19:25;;;;;;;2.60;1.90;;;;;;;33.73;28.44;98611.44;5063328;28;20025;-82
2021/08/14 01:21:52;;;;;;;1.80;1.65;;;;;;;33.80;28.68;98619.59;5055291;28;20021;-83
2021/08/14 01:24:20;;;;;;;2.80;1.90;;;;;;;33.88;28.69;98610.22;5054917;28;20037;-83
2021/08/14 01:26:47;;;;;;;2.58;2.20;;;;;;;34.25;27.69;98604.94;5068547;28;20025;-83
2021/08/14 01:29:14;;;;;;;1.65;1.40;;;;;;;34.45;27.37;98605.03;5059334;28;20045;-83
2021/08/14 01:31:40;;;;;;;1.48;1.30;;;;;;;34.47;27.33;98607.41;5070387;28;20045;-83
2021/08/14 01:34:07;;;;;;;1.85;1.73;;;;;;;34.15;28.12;98609.16;5059866;28;20076;-82
2021/08/14 01:36:33;;;;;;;3.38;2.33;;;;;;;33.79;28.47;98607.44;5056934;28;20489;-83
2021/08/14 01:39:02;;;;;;;2.35;2.00;;;;;;;33.51;29.18;98619.50;5060315;28;20036;-82
2021/08/14 01:41:29;;;;;;;1.83;1.48;;;;;;;33.58;28.86;98614.28;5053503;28;20089;-82
2021/08/14 01:43:55;;;;;;;4.45;1.70;;;;;;;33.47;29.31;98616.06;5059133;28;20115;-83
2021/08/14 01:46:22;;;;;;;2.25;2.05;;;;;;;33.46;29.03;98623.81;5068812;28;20029;-83
2021/08/14 01:48:48;;;;;;;3.22;2.35;;;;;;;33.27;29.49;98623.16;5058526;28;20024;-83
2021/08/14 01:51:15;;;;;;;2.17;2.00;;;;;;;33.29;29.62;98617.75;5054677;28;20037;-82
2021/08/14 01:53:49;;;;;;;4.13;2.00;;;;;;;33.19;29.63;98615.44;5062965;28;20064;-83
2021/08/14 01:56:16;;;;;;;1.95;1.83;;;;;;;33.49;29.12;98610.69;5054437;28;20033;-83
2021/08/14 01:58:43;;;;;;;2.15;1.30;;;;;;;33.69;29.03;98622.25;5061433;28;20100;-83
2021/08/14 02:01:09;;;;;;;1.58;1.40;;;;;;;33.98;28.47;98614.53;5055404;28;20036;-83
2021/08/14 02:03:37;;;;;;;2.40;1.50;;;;;;;34.23;27.90;98606.72;5057363;28;20033;-82
2021/08/14 02:06:03;;;;;;;3.05;1.98;;;;;;;34.08;28.47;98598.94;5062248;28;20061;-82
2021/08/14 02:08:30;;;;;;;2.80;2.10;;;;;;;34.00;28.52;98597.72;5055484;28;20029;-82
2021/08/14 02:10:56;;;;;;;2.63;1.90;;;;;;;34.10;28.36;98592.75;5060579;28;20052;-83
2021/08/14 02:13:22;;;;;;;3.00;1.77;;;;;;;33.95;28.52;98591.94;5053815;28;20119;-83
2021/08/14 02:15:48;;;;;;;1.98;1.77;;;;;;;34.06;28.39;98583.63;5054594;28;20037;-82
2021/08/14 02:18:14;;;;;;;2.42;2.08;;;;;;;33.94;28.76;98579.75;5054265;28;20059;-82
2021/08/14 02:20:40;;;;;;;2.85;2.05;;;;;;;33.89;28.46;98580.41;5056231;28;20047;-82
2021/08/14 02:23:06;;;;;;;3.85;2.10;;;;;;;33.66;28.99;98575.56;5054062;28;20037;-82
2021/08/14 02:25:32;;;;;;;4.13;1.80;;;;;;;33.80;28.61;98579.72;5061035;28;20036;-83
2021/08/14 02:27:58;;;;;;;2.75;2.33;;;;;;;33.24;29.45;98575.72;5054485;28;20484;-82
2021/08/14 02:30:24;;;;;;;2.47;1.90;;;;;;;33.55;29.15;98571.72;5054511;28;20037;-82
2021/08/14 02:32:50;;;;;;;2.42;1.80;;;;;;;33.64;28.80;98568.78;5054185;28;20074;-82
2021/08/14 02:35:16;;;;;;;2.33;2.13;;;;;;;33.19;29.48;98575.59;5053706;28;20116;-82
2021/08/14 02:37:43;;;;;;;3.42;2.15;;;;;;;33.32;29.46;98570.47;5058025;28;20040;-82
2021/08/14 02:40:09;;;;;;;2.00;1.80;;;;;;;33.36;29.43;98569.00;5055300;28;20377;-82
2021/08/14 02:42:42;;;;;;;1.88;1.67;;;;;;;33.30;29.30;98575.84;5055674;28;20060;-82
2021/08/14 02:45:09;;;;;;;2.15;1.85;;;;;;;33.03;29.95;98582.50;5055170;28;20488;-82
2021/08/14 02:47:36;;;;;;;5.13;2.10;;;;;;;32.82;30.01;98575.03;5060248;28;20044;-82
2021/08/14 02:50:02;;;;;;;2.25;2.03;;;;;;;33.32;29.42;98576.16;5054345;28;20032;-83
2021/08/14 02:52:29;;;;;;;1.90;1.73;;;;;;;33.29;28.96;98577.13;5055485;28;20024;-82
2021/08/14 02:54:55;;;;;;;2.20;1.95;;;;;;;33.01;29.62;98570.00;5063872;28;20086;-82
2021/08/14 02:57:21;;;;;;;2.25;1.90;;;;;;;32.81;29.69;98567.78;5060055;28;20111;-82
2021/08/14 02:59:47;;;;;;;3.03;2.45;;;;;;;32.31;30.68;98565.75;5067666;28;20554;-82
2021/08/14 03:02:13;;;;;;;1.60;1.50;;;;;;;33.05;30.04;98557.19;5058873;28;20028;-82
2021/08/14 03:04:39;;;;;;;3.30;1.60;;;;;;;33.47;28.93;98559.13;5057139;28;20047;-82
2021/08/14 03:07:05;;;;;;;3.50;2.03;;;;;;;33.23;29.06;98564.84;5055619;28;20037;-82
2021/08/14 03:09:31;;;;;;;2.30;1.92;;;;;;;33.42;28.98;98566.28;5060209;28;20415;-83
2021/08/14 03:11:57;;;;;;;1.88;1.77;;;;;;;33.43;29.18;98557.25;5060161;28;20039;-83
2021/08/14 03:14:23;;;;;;;2.45;2.17;;;;;;;33.10;29.89;98562.22;5053041;28;20037;-83
2021/08/14 03:16:49;;;;;;;2.78;2.22;;;;;;;33.08;29.84;98558.28;5057102;28;20040;-83
2021/08/14 03:19:16;;;;;;;2.25;2.03;;;;;;;33.19;29.42;98569.91;5063062;28;20059;-83
2021/08/14 03:21:42;;;;;;;1.95;1.73;;;;;;;33.63;28.92;98565.16;5056924;28;20426;-82
2021/08/14 03:24:08;;;;;;;1.88;1.63;;;;;;;34.12;28.10;98564.56;5053305;28;20400;-82
2021/08/14 03:26:34;;;;;;;1.75;1.65;;;;;;;33.85;28.32;98559.09;5056421;28;20033;-83
2021/08/14 03:29:00;;;;;;;2.08;1.70;;;;;;;34.05;28.68;98565.72;5068937;28;20029;-82
2021/08/14 03:31:26;;;;;;;1.40;1.30;;;;;;;34.05;28.35;98579.97;5057007;28;20032;-82
2021/08/14 03:33:52;;;;;;;2.60;1.65;;;;;;;34.38;27.81;98584.69;5061826;28;20033;-83
2021/08/14 03:36:19;;;;;;;1.50;1.27;;;;;;;34.71;27.57;98600.31;5060093;28;20421;-82
2021/08/14 03:38:45;;;;;;;3.53;1.55;;;;;;;34.64;27.84;98617.03;5056832;28;20039;-82
2021/08/14 03:41:11;;;;;;;2.60;2.30;;;;;;;33.40;30.28;98631.44;5065190;28;20029;-83
2021/08/14 03:43:37;;;;;;;1.65;1.55;;;;;;;33.91;29.19;98637.72;5070752;28;20044;-83
2021/08/14 03:46:04;;;;;;;1.58;1.48;;;;;;;34.52;28.09;98626.66;5067845;28;20074;-83
2021/08/14 03:48:31;;;;;;;2.83;1.85;;;;;;;34.69;27.95;98631.41;5057303;28;20053;-83
2021/08/14 03:50:58;;;;;;;1.60;1.50;;;;;;;34.86;27.62;98608.03;5059069;28;20439;-83
2021/08/14 03:53:24;;;;;;;3.97;1.83;;;;;;;34.71;28.06;98596.66;5061276;28;20162;-83
2021/08/14 03:55:50;;;;;;;2.38;2.13;;;;;;;34.01;28.85;98589.97;5075754;28;20029;-83
2021/08/14 03:58:16;;;;;;;1.95;1.75;;;;;;;34.13;29.47;98588.91;5073161;28;20037;-83
2021/08/14 04:00:42;;;;;;;1.88;1.65;;;;;;;34.17;29.00;98586.66;5056449;28;20029;-83
2021/08/14 04:03:08;;;;;;;1.73;1.30;;;;;;;34.61;28.37;98603.78;5063270;28;20029;-83
2021/08/14 04:05:34;;;;;;;2.33;2.10;;;;;;;33.37;29.98;98607.56;5061683;28;20032;-82
2021/08/14 04:08:00;;;;;;;3.05;1.40;;;;;;;33.84;29.35;98597.44;5062681;28;20036;-82
2021/08/14 04:10:26;;;;;;;1.50;1.40;;;;;;;34.20;28.97;98573.47;5058101;28;20373;-82
2021/08/14 04:12:52;;;;;;;2.60;2.40;;;;;;;33.63;29.93;98578.63;5063009;28;20056;-83
2021/08/14 04:15:19;;;;;;;2.40;2.20;;;;;;;33.49;30.23;98588.69;5062678;28;20040;-83
2021/08/14 04:17:45;;;;;;;2.45;1.75;;;;;;;33.96;29.82;98596.34;5076012;28;20029;-83
2021/08/14 04:20:11;;;;;;;1.55;1.45;;;;;;;34.73;28.91;98594.88;5076029;28;20107;-83
2021/08/14 04:22:37;;;;;;;1.70;1.60;;;;;;;35.09;28.19;98596.50;5075917;28;20484;-83
2021/08/14 04:25:04;;;;;;;2.17;1.65;;;;;;;35.39;27.97;98600.00;5075934;28;20032;-83
2021/08/14 04:27:30;;;;;;;1.70;1.48;;;;;;;35.32;28.05;98589.00;5075828;28;20033;-83
2021/08/14 04:29:56;;;;;;;1.75;1.50;;;;;;;35.00;28.59;98590.88;5075889;28;20024;-82
2021/08/14 04:32:22;;;;;;;1.70;1.30;;;;;;;35.35;28.25;98596.56;5074962;28;20107;-83
2021/08/14 04:34:49;;;;;;;2.15;1.45;;;;;;;35.26;28.43;98591.81;5058360;28;20056;-83
2021/08/14 04:37:15;;;;;;;2.88;1.42;;;;;;;35.06;29.08;98590.97;5058098;28;20106;-83
2021/08/14 04:39:42;;;;;;;2.08;1.75;;;;;;;34.55;29.64;98595.13;5056264;28;20500;-83
2021/08/14 04:42:08;;;;;;;2.58;1.67;;;;;;;34.34;30.04;98582.03;5066857;28;20033;-80
2021/08/14 04:44:34;;;;;;;1.60;1.33;;;;;;;34.49;30.47;98585.66;5065478;28;20448;-80
2021/08/14 04:47:02;;;;;;;1.67;1.58;;;;;;;34.96;29.77;98578.09;5066434;28;20048;-80
2021/08/14 04:49:28;;;;;;;4.18;1.90;;;;;;;34.31;29.85;98585.88;5072345;28;20559;-80
2021/08/14 04:51:54;;;;;;;5.07;1.88;;;;;;;34.33;30.82;98591.09;5055419;28;20072;-80
2021/08/14 04:54:20;;;;;;;2.65;1.85;;;;;;;34.15;30.18;98583.50;5065589;28;20060;-81
2021/08/14 04:56:46;;;;;;;2.17;1.77;;;;;;;33.66;31.51;98586.19;5056282;28;20033;-80
2021/08/14 04:59:12;;;;;;;1.95;1.67;;;;;;;34.05;30.83;98582.06;5065701;28;20048;-80
2021/08/14 05:01:38;;;;;;;1.95;1.83;;;;;;;34.31;30.30;98583.00;5055643;28;20037;-81
2021/08/14 05:04:04;;;;;;;2.38;2.17;;;;;;;34.08;31.25;98581.06;5057263;28;20040;-81
2021/08/14 05:06:30;;;;;;;1.88;1.77;;;;;;;34.10;30.66;98589.91;5060003;28;20033;-81
2021/08/14 05:08:56;;;;;;;3.22;1.83;;;;;;;33.24;32.47;98604.19;5057682;28;20028;-80
2021/08/14 05:11:23;;;;;;;2.35;2.00;;;;;;;33.34;32.41;98600.03;5062484;28;20043;-81
2021/08/14 05:13:49;;;;;;;1.80;1.70;;;;;;;32.71;33.37;98586.94;5055935;28;20033;-81
2021/08/14 05:16:15;;;;;;;3.00;2.20;;;;;;;32.80;33.32;98588.94;5060502;28;20048;-81
2021/08/14 05:18:41;;;;;;;2.13;1.73;;;;;;;33.47;32.91;98593.28;5064208;28;20035;-80
2021/08/14 05:21:07;;;;;;;2.13;1.92;;;;;;;33.49;32.76;98593.59;5065421;28;20060;-81
2021/08/14 05:23:33;;;;;;;2.75;2.13;;;;;;;33.93;32.08;98583.09;5075603;28;20131;-81
2021/08/14 05:25:59;;;;;;;1.67;1.50;;;;;;;35.20;30.55;98581.56;5057644;28;20503;-81
2021/08/14 05:28:25;;;;;;;2.20;1.40;;;;;;;35.31;30.16;98582.50;5072053;28;20028;-82
2021/08/14 05:30:51;;;;;;;1.60;1.50;;;;;;;35.69;29.74;98598.56;5074428;28;20039;-83
2021/08/14 05:33:17;;;;;;;3.03;1.48;;;;;;;35.90;29.44;98600.13;5072604;28;20036;-82
2021/08/14 05:35:43;;;;;;;1.40;1.30;;;;;;;35.95;29.40;98607.19;5074222;28;20034;-82
2021/08/14 05:38:09;;;;;;;1.73;1.50;;;;;;;35.87;29.51;98617.50;5074890;28;20028;-82
2021/08/14 05:40:35;;;;;;;1.58;1.48;;;;;;;35.57;30.15;98614.00;5058179;28;20057;-82
2021/08/14 05:43:03;;;;;;;1.67;1.55;;;;;;;35.25;30.04;98612.28;5054191;28;20033;-82
2021/08/14 05:45:30;;;;;;;1.67;1.58;;;;;;;35.52;29.99;98617.63;5065130;28;20048;-82
2021/08/14 05:47:56;;;;;;;2.55;1.40;;;;;;;35.66;30.14;98618.81;5072611;28;20048;-82
2021/08/14 05:50:22;;;;;;;1.95;1.42;;;;;;;35.89;29.47;98612.84;5074230;28;20043;-83
2021/08/14 05:52:48;;;;;;;1.33;1.23;;;;;;;35.77;29.71;98616.88;5074518;28;20063;-82
2021/08/14 05:55:15;;;;;;;1.92;1.40;;;;;;;35.74;30.43;98620.72;5073848;28;20544;-82
2021/08/14 05:57:41;;;;;;;2.40;1.23;;;;;;;36.05;30.02;98614.34;5073033;28;20068;-82
2021/08/14 06:00:08;;;;;;;1.50;1.33;;;;;;;36.18;29.97;98616.78;5062815;28;20028;-82
2021/08/14 06:02:34;;;;;;;1.35;1.25;;;;;;;36.32;29.94;98613.81;5073691;28;20036;-82
2021/08/14 06:05:00;;;;;;;1.45;1.35;;;;;;;36.20;30.33;98619.97;5073759;28;20036;-82
2021/08/14 06:07:26;;;;;;;1.42;1.33;;;;;;;36.33;30.75;98617.47;5069918;28;20498;-82
2021/08/14 06:09:52;;;;;;;1.58;1.35;;;;;;;35.71;31.08;98607.44;5074139;28;20507;-82
2021/08/14 06:12:18;;;;;;;1.38;1.27;;;;;;;35.82;30.82;98612.50;5074028;28;20037;-82
2021/08/14 06:14:44;;;;;;;1.73;1.52;;;;;;;35.96;30.79;98608.75;5073794;28;20033;-82
2021/08/14 06:17:10;;;;;;;1.25;0.90;;;;;;;36.11;30.85;98617.28;5074090;28;20436;-82
2021/08/14 06:19:36;;;;;;;5.20;1.50;;;;;;;36.12;30.53;98622.47;5073444;28;20492;-82
2021/08/14 06:22:03;;;;;;;1.75;1.50;;;;;;;36.07;30.33;98626.06;5073866;28;20059;-82
2021/08/14 06:24:30;;;;;;;2.45;1.45;;;;;;;36.03;31.14;98629.16;5073755;28;20037;-82
2021/08/14 06:26:56;;;;;;;1.90;1.75;;;;;;;35.82;31.09;98627.59;5073710;28;20060;-82
2021/08/14 06:29:22;;;;;;;2.60;1.52;;;;;;;35.89;31.39;98629.22;5073911;28;20036;-83
2021/08/14 06:31:48;;;;;;;1.55;1.45;;;;;;;35.61;31.49;98634.59;5072622;28;20503;-82
2021/08/14 06:34:14;;;;;;;1.65;1.38;;;;;;;35.58;32.00;98627.03;5073373;28;20032;-82
2021/08/14 06:36:40;;;;;;;1.85;1.73;;;;;;;35.37;31.37;98628.28;5073376;28;20036;-82
2021/08/14 06:39:06;;;;;;;2.03;1.88;;;;;;;35.17;32.06;98629.03;5058285;28;20029;-82
2021/08/14 06:41:32;;;;;;;1.45;1.35;;;;;;;35.41;32.59;98623.13;5062843;28;20028;-82
2021/08/14 06:43:58;;;;;;;2.15;1.80;;;;;;;35.02;32.62;98631.16;5067468;28;20033;-83
2021/08/14 06:46:25;;;;;;;2.30;2.13;;;;;;;35.43;32.12;98621.34;5053332;28;20082;-83
2021/08/14 06:48:51;;;;;;;2.17;1.63;;;;;;;35.54;32.79;98628.53;5053475;28;20033;-82
2021/08/14 06:51:17;;;;;;;2.13;1.77;;;;;;;35.40;32.56;98619.47;5053360;28;20028;-82
2021/08/14 06:53:44;;;;;;;1.75;1.50;;;;;;;35.07;32.78;98627.59;5065639;28;20032;-82
2021/08/14 06:56:10;;;;;;;1.65;1.50;;;;;;;36.00;32.12;98620.78;5073214;28;20155;-82
2021/08/14 06:58:36;;;;;;;1.60;1.50;;;;;;;35.52;32.06;98625.38;5073458;28;20044;-82
2021/08/14 07:01:02;;;;;;;1.55;1.38;;;;;;;35.03;31.77;98623.38;5072670;28;20035;-82
2021/08/14 07:03:28;;;;;;;1.73;1.63;;;;;;;35.48;33.82;98619.84;5073235;28;20036;-82
2021/08/14 07:05:54;;;;;;;1.85;1.73;;;;;;;36.48;32.16;98621.78;5073343;28;20029;-82
2021/08/14 07:08:20;;;;;;;1.58;1.45;;;;;;;37.35;30.01;98627.91;5056389;28;20035;-82
2021/08/14 07:10:46;;;;;;;1.58;1.45;;;;;;;37.35;29.83;98625.81;5066124;28;20025;-82
2021/08/14 07:13:12;;;;;;;2.75;1.50;;;;;;;37.42;30.21;98630.31;5073642;28;20053;-82
2021/08/14 07:15:38;;;;;;;2.00;1.60;;;;;;;36.57;31.30;98623.72;5073115;28;20037;-82
2021/08/14 07:18:04;;;;;;;1.92;1.73;;;;;;;36.47;30.59;98623.09;5072851;28;20039;-82
2021/08/14 07:20:30;;;;;;;2.33;1.67;;;;;;;36.15;31.35;98623.53;5073104;28;20028;-82
2021/08/14 07:22:56;;;;;;;1.58;1.48;;;;;;;36.48;30.97;98621.78;5072969;28;20064;-82
2021/08/14 07:25:23;;;;;;;1.98;1.55;;;;;;;37.10;30.88;98623.88;5072861;28;20033;-82
2021/08/14 07:27:49;;;;;;;1.27;1.10;;;;;;;37.82;29.25;98626.31;5071761;28;20050;-82
2021/08/14 07:30:16;;;;;;;1.98;1.35;;;;;;;37.92;29.86;98622.75;5073042;28;20054;-82
2021/08/14 07:32:42;;;;;;;3.08;1.30;;;;;;;37.94;30.55;98619.34;5073077;28;20082;-82
2021/08/14 07:35:09;;;;;;;1.60;1.50;;;;;;;37.89;30.88;98629.50;5073139;28;20476;-82
2021/08/14 07:37:35;;;;;;;1.40;1.30;;;;;;;37.64;31.19;98627.56;5059360;28;20037;-82
2021/08/14 07:40:01;;;;;;;1.20;1.10;;;;;;;37.61;30.68;98624.94;5052641;28;20029;-82
2021/08/14 07:42:27;;;;;;;1.58;1.40;;;;;;;36.12;32.04;98633.13;5052852;28;20465;-82
2021/08/14 07:44:55;;;;;;;1.63;1.40;;;;;;;37.13;32.70;98619.97;5066351;28;20040;-82
2021/08/14 07:47:21;;;;;;;1.20;1.10;;;;;;;38.28;29.30;98623.88;5071553;28;20087;-82
2021/08/14 07:49:47;;;;;;;1.52;1.42;;;;;;;37.46;30.40;98622.25;5071354;28;20105;-82
2021/08/14 07:52:13;;;;;;;1.40;1.30;;;;;;;38.06;28.89;98620.94;5072698;28;20032;-82
2021/08/14 07:54:39;;;;;;;1.40;1.30;;;;;;;38.01;29.64;98618.84;5072981;28;20057;-82
2021/08/14 07:57:05;;;;;;;2.03;1.38;;;;;;;38.54;27.42;98629.38;5072925;28;20032;-82
2021/08/14 07:59:32;;;;;;;2.17;1.30;;;;;;;39.21;27.62;98621.53;5073466;28;20424;-82
2021/08/14 08:01:58;;;;;;;1.33;1.20;;;;;;;39.27;26.89;98614.47;5072880;28;20082;-82
2021/08/14 08:04:24;;;;;;;1.38;1.23;;;;;;;39.58;27.85;98610.47;5072929;28;20041;-82
2021/08/14 08:06:50;;;;;;;1.40;1.30;;;;;;;39.70;26.70;98614.84;5069191;28;20028;-82
2021/08/14 08:09:16;;;;;;;1.25;1.15;;;;;;;39.99;26.80;98616.25;5072609;28;20507;-82
2021/08/14 08:11:42;;;;;;;2.00;1.33;;;;;;;40.17;26.96;98612.75;5072659;28;20020;-82
2021/08/14 08:14:08;;;;;;;2.65;1.42;;;;;;;39.81;27.03;98606.16;5076330;28;20434;-83
2021/08/14 08:16:34;;;;;;;1.33;1.20;;;;;;;40.16;27.22;98607.56;5076363;28;20040;-82
2021/08/14 08:19:01;;;;;;;1.50;1.35;;;;;;;40.30;26.60;98612.97;5076203;28;20362;-82
2021/08/14 08:21:27;;;;;;;1.13;1.02;;;;;;;40.06;27.13;98606.31;5075892;28;20087;-82
2021/08/14 08:23:53;;;;;;;1.38;1.20;;;;;;;40.10;26.05;98603.94;5075822;28;20032;-82
2021/08/14 08:26:19;;;;;;;2.67;1.20;;;;;;;40.16;28.22;98602.59;5075993;28;20049;-82
2021/08/14 08:28:45;;;;;;;1.30;1.20;;;;;;;40.03;26.33;98605.28;5076010;28;20165;-82
2021/08/14 08:31:11;;;;;;;1.23;1.10;;;;;;;40.45;26.23;98603.94;5076439;28;20070;-82
2021/08/14 08:33:37;;;;;;;1.27;1.17;;;;;;;40.51;26.57;98601.81;5076072;28;20040;-82
2021/08/14 08:36:03;;;;;;;1.20;1.10;;;;;;;40.73;25.83;98601.63;5063134;28;20378;-82
2021/08/14 08:38:29;;;;;;;1.25;1.10;;;;;;;40.89;24.59;98597.81;5056166;28;20025;-83
2021/08/14 08:40:56;;;;;;;1.60;1.20;;;;;;;41.22;23.90;98599.56;5069014;28;20028;-82
2021/08/14 08:43:22;;;;;;;1.50;1.38;;;;;;;41.51;24.18;98592.19;5074279;28;20088;-82
2021/08/14 08:45:48;;;;;;;1.20;1.10;;;;;;;41.72;23.59;98602.69;5055804;28;20037;-83
2021/08/14 08:48:19;;;;;;;1.30;1.20;;;;;;;41.63;23.37;98600.16;5055601;28;20053;-82
2021/08/14 08:50:48;;;;;;;;;;;;;;;41.31;24.37;98593.50;5055767;28;20037;-82
2021/08/14 08:53:14;;;;;;;2.78;1.23;;;;;;;41.27;25.60;98595.88;5072033;28;19962;-83
2021/08/14 08:55:41;;;;;;;1.00;0.75;;;;;;;41.66;24.38;98590.41;5074440;28;20115;-80
2021/08/14 08:58:07;;;;;;;1.10;1.10;;;;;;;41.43;24.48;98599.91;5075321;28;20035;-80
2021/08/14 09:00:33;;;;;;;2.60;1.08;;;;;;;41.53;24.02;98592.44;5075597;28;20083;-80
2021/08/14 09:03:08;;;;;;;1.23;1.13;;;;;;;41.67;24.40;98596.97;5075348;28;20113;-80
2021/08/14 09:05:44;;;;;;;1.52;1.02;;;;;;;41.94;24.82;98596.59;5075532;28;20032;-82
2021/08/14 09:08:11;;;;;;;1.15;1.00;;;;;;;41.93;25.46;98597.94;5075344;28;20032;-82
2021/08/14 09:10:37;;;;;;;1.40;1.30;;;;;;;42.00;23.12;98602.31;5075123;28;20108;-82
2021/08/14 09:13:17;;;;;;;2.15;1.17;;;;;;;41.82;23.13;98589.47;5075292;28;20021;-82
2021/08/14 09:15:44;;;;;;;1.92;1.33;;;;;;;41.92;23.64;98592.72;5075116;28;20028;-82
2021/08/14 09:18:13;;;;;;;2.08;1.20;;;;;;;42.11;23.53;98587.75;5075189;28;20036;-82
2021/08/14 09:20:53;;;;;;;1.75;1.35;;;;;;;41.63;23.82;98584.97;5074903;28;20025;-82
2021/08/14 09:23:23;;;;;;;1.38;1.27;;;;;;;41.49;23.40;98584.09;5074353;28;20113;-82
2021/08/14 09:25:54;;;;;;;1.85;1.52;;;;;;;41.13;23.91;98585.53;5075014;28;20395;-80
2021/08/14 09:28:29;;;;;;;5.35;1.60;;;;;;;41.00;24.23;98574.69;5074962;28;20029;-80
2021/08/14 09:30:58;;;;;;;1.85;1.58;;;;;;;41.11;24.28;98579.53;5074802;28;20115;-80
2021/08/14 09:33:29;;;;;;;1.65;1.40;;;;;;;40.68;24.42;98576.56;5071592;28;20036;-80
2021/08/14 09:36:04;;;;;;;1.50;1.40;;;;;;;41.03;23.83;98570.69;5054688;28;20075;-80
2021/08/14 09:38:44;;;;;;;1.40;1.30;;;;;;;41.31;23.29;98574.06;5054990;28;20091;-80
2021/08/14 09:41:31;;;;;;;2.22;1.45;;;;;;;41.15;24.51;98572.16;5055011;28;20033;-80
2021/08/14 09:43:57;;;;;;;1.60;1.50;;;;;;;41.49;23.88;98571.78;5067839;28;20024;-81
2021/08/14 09:46:41;;;;;;;1.85;1.40;;;;;;;41.61;23.59;98573.97;5074479;28;20500;-81
2021/08/14 09:49:07;;;;;;;1.52;1.35;;;;;;;41.48;23.45;98573.09;5074262;28;20028;-80
2021/08/14 09:51:34;;;;;;;1.58;1.40;;;;;;;41.88;23.31;98561.28;5074449;28;20033;-80
2021/08/14 09:54:02;;;;;;;1.85;1.75;;;;;;;41.37;24.02;98567.47;5074308;28;20400;-80
2021/08/14 09:56:35;;;;;;;1.73;1.63;;;;;;;40.83;24.95;98568.28;5074190;28;20488;-80
2021/08/14 09:59:02;;;;;;;1.95;1.85;;;;;;;40.84;24.94;98554.66;5074515;28;20028;-80
2021/08/14 10:01:32;;;;;;;2.47;1.95;;;;;;;40.62;24.69;98559.31;5074443;28;20060;-80
2021/08/14 10:03:59;;;;;;;2.00;1.90;;;;;;;41.04;25.17;98559.97;5072753;28;20039;-80
2021/08/14 10:06:27;;;;;;;2.05;1.85;;;;;;;40.89;23.92;98560.38;5074263;28;20063;-80
2021/08/14 10:08:53;;;;;;;2.33;2.03;;;;;;;40.76;24.85;98568.88;5074291;28;20047;-80
2021/08/14 10:11:21;;;;;;;2.28;2.00;;;;;;;40.20;26.40;98562.00;5074426;28;20063;-80
2021/08/14 10:13:47;;;;;;;2.35;2.20;;;;;;;40.01;25.44;98562.66;5074223;28;20025;-80
2021/08/14 10:16:15;;;;;;;2.40;2.20;;;;;;;40.12;25.88;98550.28;5066355;28;23481;-80
2021/08/14 10:18:43;;;;;;;3.75;2.10;;;;;;;40.05;26.66;98550.88;5065101;28;20033;-80
2021/08/14 10:21:10;;;;;;;2.15;1.95;;;;;;;40.99;25.71;98552.16;5068238;28;20484;-80
2021/08/14 10:23:37;;;;;;;2.50;2.08;;;;;;;41.54;25.42;98547.88;5073454;28;20045;-80
2021/08/14 10:26:07;;;;;;;2.05;1.95;;;;;;;41.28;25.45;98548.44;5073712;28;20036;-80
2021/08/14 10:28:47;;;;;;;2.15;1.95;;;;;;;40.80;24.82;98546.31;5073697;28;20091;-80
2021/08/14 10:31:34;;;;;;;2.38;2.17;;;;;;;41.09;23.72;98545.50;5073747;28;20384;-80
2021/08/14 10:34:12;;;;;;;2.28;2.08;;;;;;;40.21;26.21;98549.19;5073184;28;20024;-80
2021/08/14 10:36:39;;;;;;;3.00;2.70;;;;;;;40.60;24.70;98538.94;5074051;28;20036;-80
2021/08/14 10:39:22;;;;;;;2.53;2.33;;;;;;;41.39;24.96;98550.41;5073511;28;20025;-80
2021/08/14 10:42:00;;;;;;;2.83;2.25;;;;;;;41.19;24.55;98540.16;5072640;28;20128;-80
2021/08/14 10:44:40;;;;;;;2.28;2.08;;;;;;;41.20;24.60;98536.72;5071430;28;20028;-80
2021/08/14 10:47:25;;;;;;;1.90;1.80;;;;;;;41.62;23.83;98537.25;5072904;28;20052;-80
2021/08/14 10:49:51;;;;;;;3.25;2.33;;;;;;;41.53;23.36;98532.66;5073577;28;20378;-80
2021/08/14 10:52:17;;;;;;;2.67;2.47;;;;;;;41.02;24.49;98523.06;5073349;28;20549;-80
2021/08/14 10:54:43;;;;;;;2.80;2.60;;;;;;;41.14;25.28;98529.47;5073282;28;20029;-80
2021/08/14 10:57:09;;;;;;;2.50;2.30;;;;;;;41.18;25.57;98521.28;5073150;28;20052;-80
2021/08/14 10:59:38;;;;;;;2.25;2.05;;;;;;;41.21;23.95;98526.75;5073561;28;20038;-80
2021/08/14 11:02:10;;;;;;;2.30;2.10;;;;;;;41.34;24.40;98512.47;5073226;28;20082;-80
2021/08/14 11:04:48;;;;;;;2.50;2.30;;;;;;;40.49;25.81;98513.13;5073303;28;20029;-80
2021/08/14 11:07:17;;;;;;;3.45;3.15;;;;;;;41.19;25.23;98506.34;5062652;28;20432;-80
2021/08/14 11:09:47;;;;;;;2.50;2.30;;;;;;;41.72;24.82;98504.63;5073553;28;20028;-80
2021/08/14 11:12:30;;;;;;;3.15;2.83;;;;;;;41.36;23.46;98505.38;5056183;28;20040;-80
2021/08/14 11:15:13;;;;;;;2.83;2.63;;;;;;;40.74;24.42;98498.72;5053034;28;20460;-80
2021/08/14 11:17:39;;;;;;;3.25;2.95;;;;;;;40.76;24.68;98505.50;5061573;28;20468;-80
2021/08/14 11:20:26;;;;;;;3.13;2.83;;;;;;;40.99;25.39;98500.28;5073289;28;20032;-80
2021/08/14 11:22:57;;;;;;;3.22;2.92;;;;;;;40.27;24.99;98498.91;5062822;28;20040;-80
2021/08/14 11:25:31;;;;;;;3.50;3.20;;;;;;;39.60;27.08;98498.59;5072854;28;20068;-79
2021/08/14 11:28:06;;;;;;;3.97;3.67;;;;;;;40.56;24.15;98498.09;5072938;28;20078;-80
2021/08/14 11:30:36;;;;;;;3.47;3.17;;;;;;;40.80;25.88;98500.22;5072539;28;20031;-80
2021/08/14 11:33:08;;;;;;;3.80;3.50;;;;;;;41.29;24.96;98496.00;5072927;28;20057;-80
2021/08/14 11:35:36;;;;;;;2.78;2.58;;;;;;;42.27;24.29;98499.34;5073090;28;20033;-80